Time;durP1;ratioP1;P1;durP2;ratioP2;P2;SDS_P1;SDS_P2;PMS_P1;PMS_P2;Temp;Humidity;BMP_temperature;BMP_pressure;BME280_temperature;BME280_humidity;BME280_pressure;Samples;Min_cycle;Max_cycle;Signal;HPM_P1;HPM_P2
2022/03/09 00:01:36;;;;;;;5.17;4.27;;;2.10;96.20;;;;;;4937910;29;20510;-76
2022/03/09 00:04:05;;;;;;;6.90;4.67;;;2.10;96.20;;;;;;4938991;29;20517;-75
2022/03/09 00:06:34;;;;;;;5.23;4.73;;;2.10;96.30;;;;;;4949288;28;20480;-76
2022/03/09 00:09:02;;;;;;;6.30;5.17;;;2.10;96.30;;;;;;4957907;28;20453;-76
2022/03/09 00:11:32;;;;;;;8.40;4.80;;;2.00;96.30;;;;;;4956669;28;20523;-76
2022/03/09 00:14:00;;;;;;;8.07;6.57;;;2.00;96.30;;;;;;4958097;28;20560;-76
2022/03/09 00:16:29;;;;;;;7.43;5.40;;;1.90;96.30;;;;;;4947159;28;20548;-75
2022/03/09 00:18:57;;;;;;;8.50;5.80;;;1.90;96.40;;;;;;4939148;29;20443;-76
2022/03/09 00:21:28;;;;;;;9.10;6.70;;;1.90;96.40;;;;;;4946838;28;20467;-76
2022/03/09 00:23:56;;;;;;;7.10;5.30;;;1.80;96.40;;;;;;4956593;28;20557;-76
2022/03/09 00:26:24;;;;;;;8.57;6.03;;;1.80;96.50;;;;;;4956622;28;20484;-77
2022/03/09 00:28:54;;;;;;;10.50;7.27;;;1.80;96.50;;;;;;4956595;28;20449;-77
2022/03/09 00:31:22;;;;;;;8.10;6.30;;;1.80;96.50;;;;;;4942448;28;20496;-77
2022/03/09 00:33:50;;;;;;;9.80;6.80;;;1.70;96.60;;;;;;4947289;28;20571;-76
2022/03/09 00:36:19;;;;;;;9.23;6.50;;;1.70;96.60;;;;;;4943308;29;20972;-77
2022/03/09 00:38:47;;;;;;;8.20;5.83;;;1.70;96.70;;;;;;4956568;28;20884;-77
2022/03/09 00:41:16;;;;;;;7.60;6.63;;;1.60;96.60;;;;;;4957901;29;20846;-76
2022/03/09 00:43:44;;;;;;;7.50;6.27;;;1.60;96.70;;;;;;4957572;29;20465;-77
2022/03/09 00:46:14;;;;;;;7.90;6.33;;;1.60;96.70;;;;;;4956338;28;20513;-76
2022/03/09 00:48:42;;;;;;;7.70;6.23;;;1.50;96.70;;;;;;4956245;28;20888;-76
2022/03/09 00:51:10;;;;;;;7.77;6.13;;;1.50;96.80;;;;;;4945618;28;20475;-77
2022/03/09 00:53:39;;;;;;;8.87;6.57;;;1.50;96.80;;;;;;4942395;28;20571;-76
2022/03/09 00:56:08;;;;;;;7.37;6.43;;;1.50;96.90;;;;;;4956137;28;20543;-77
2022/03/09 00:58:40;;;;;;;7.73;6.53;;;1.40;96.90;;;;;;4957061;28;20915;-77
2022/03/09 01:01:10;;;;;;;8.10;6.50;;;1.40;96.90;;;;;;4948141;28;20455;-76
2022/03/09 01:03:42;;;;;;;8.77;6.57;;;1.40;96.90;;;;;;4937991;29;20500;-76
2022/03/09 01:06:10;;;;;;;7.03;6.23;;;1.30;96.90;;;;;;4936832;29;20962;-77
2022/03/09 01:08:41;;;;;;;9.70;6.30;;;1.30;96.90;;;;;;4936753;29;20926;-76
2022/03/09 01:11:10;;;;;;;10.80;6.70;;;1.30;97.00;;;;;;4954237;28;20469;-77
2022/03/09 01:13:39;;;;;;;7.80;6.80;;;1.20;96.90;;;;;;4956971;28;20556;-77
2022/03/09 01:16:07;;;;;;;8.00;6.60;;;1.20;97.00;;;;;;4956979;28;20942;-77
2022/03/09 01:18:36;;;;;;;8.00;6.77;;;1.20;97.00;;;;;;4957156;28;20486;-77
2022/03/09 01:21:05;;;;;;;9.90;8.63;;;1.20;97.10;;;;;;4952300;29;20451;-76
2022/03/09 01:23:34;;;;;;;8.40;7.40;;;1.10;97.10;;;;;;4947048;28;20570;-77
2022/03/09 01:26:02;;;;;;;9.80;7.80;;;1.10;97.10;;;;;;4955434;28;20980;-76
2022/03/09 01:28:31;;;;;;;7.63;6.23;;;1.10;97.20;;;;;;4955543;29;20475;-77
2022/03/09 01:30:59;;;;;;;6.97;6.23;;;1.10;97.20;;;;;;4972926;28;20974;-77
2022/03/09 01:33:27;;;;;;;8.73;7.27;;;1.10;97.20;;;;;;4974731;28;20505;-76
2022/03/09 01:35:56;;;;;;;8.03;6.37;;;1.00;97.20;;;;;;4974538;28;20455;-76
2022/03/09 01:38:28;;;;;;;8.47;6.50;;;1.00;97.20;;;;;;4974949;28;20446;-77
2022/03/09 01:40:56;;;;;;;7.67;5.53;;;1.00;97.30;;;;;;4975841;28;20446;-76
2022/03/09 01:43:24;;;;;;;7.60;6.50;;;1.00;97.30;;;;;;4957383;28;20484;-77
2022/03/09 01:45:52;;;;;;;6.60;5.90;;;1.00;97.40;;;;;;4955197;29;20457;-77
2022/03/09 01:48:23;;;;;;;9.00;6.30;;;0.90;97.40;;;;;;4942357;28;20888;-77
2022/03/09 01:50:54;;;;;;;7.30;5.53;;;0.90;97.50;;;;;;4937719;29;20487;-77
2022/03/09 01:53:22;;;;;;;6.67;5.97;;;0.90;97.50;;;;;;4935865;28;20477;-76
2022/03/09 01:55:52;;;;;;;6.80;6.07;;;0.90;97.60;;;;;;4948963;29;20534;-77
2022/03/09 01:58:21;;;;;;;5.43;4.87;;;0.90;97.70;;;;;;4956563;29;20440;-77
2022/03/09 02:00:49;;;;;;;9.40;5.73;;;0.90;97.70;;;;;;4949781;29;20468;-76
2022/03/09 02:03:18;;;;;;;6.47;5.87;;;0.90;97.70;;;;;;4935449;28;20576;-77
2022/03/09 02:05:47;;;;;;;6.47;5.77;;;0.90;97.70;;;;;;4938260;29;20458;-77
2022/03/09 02:11:03;;;;;;;7.03;5.73;;;0.90;97.80;;;;;;4943234;29;20544;-77
2022/03/09 02:13:31;;;;;;;7.40;6.50;;;0.90;97.90;;;;;;4935437;29;20474;-77
2022/03/09 02:16:01;;;;;;;7.93;6.10;;;0.90;97.90;;;;;;4936679;29;20450;-76
2022/03/09 02:18:30;;;;;;;7.13;5.80;;;0.90;97.90;;;;;;4938949;28;20541;-76
2022/03/09 02:21:02;;;;;;;7.83;5.17;;;0.90;97.90;;;;;;4948545;28;20491;-77
2022/03/09 02:23:32;;;;;;;7.10;5.40;;;0.90;98.00;;;;;;4935328;28;20476;-76
2022/03/09 02:26:00;;;;;;;6.20;5.00;;;0.90;98.00;;;;;;4935382;29;20449;-77
2022/03/09 02:28:29;;;;;;;7.17;5.67;;;0.90;98.00;;;;;;4937553;29;20996;-77
2022/03/09 02:30:58;;;;;;;7.30;5.90;;;0.80;98.30;;;;;;4962832;28;20443;-77
2022/03/09 02:33:26;;;;;;;5.80;4.77;;;0.80;98.10;;;;;;4974672;28;20893;-76
2022/03/09 02:35:54;;;;;;;5.63;5.00;;;0.80;98.10;;;;;;4958414;28;20452;-77
2022/03/09 02:38:22;;;;;;;7.17;5.57;;;0.80;98.10;;;;;;4973791;28;20453;-77
2022/03/09 02:40:52;;;;;;;7.20;6.00;;;0.80;98.10;;;;;;4973575;28;20482;-76
2022/03/09 02:43:20;;;;;;;7.33;5.30;;;0.80;98.20;;;;;;4973737;28;20518;-76
2022/03/09 02:45:48;;;;;;;5.67;5.17;;;0.80;98.20;;;;;;4973741;28;20501;-76
2022/03/09 02:48:16;;;;;;;5.97;5.20;;;0.80;98.20;;;;;;4973265;28;20471;-77
2022/03/09 02:50:45;;;;;;;8.00;5.97;;;0.80;98.30;;;;;;4973487;28;20951;-77
2022/03/09 02:53:13;;;;;;;6.93;5.73;;;0.80;98.60;;;;;;4973299;28;20446;-77
2022/03/09 02:55:44;;;;;;;7.67;5.53;;;0.80;98.30;;;;;;4973463;28;20452;-76
2022/03/09 02:58:13;;;;;;;7.83;5.80;;;0.70;98.30;;;;;;4974936;28;20437;-77
2022/03/09 03:00:41;;;;;;;8.80;5.90;;;0.70;98.30;;;;;;4959310;28;20488;-77
2022/03/09 03:03:10;;;;;;;5.47;4.87;;;0.70;98.30;;;;;;4941946;28;20471;-77
2022/03/09 03:05:38;;;;;;;6.67;5.73;;;0.70;98.40;;;;;;4970155;28;20459;-76
2022/03/09 03:08:06;;;;;;;7.50;6.33;;;0.70;98.60;;;;;;4973556;28;20484;-76
2022/03/09 03:10:34;;;;;;;8.00;6.90;;;0.70;98.40;;;;;;4973400;28;20442;-77
2022/03/09 03:13:02;;;;;;;7.50;6.20;;;0.60;98.30;;;;;;4973442;28;20457;-77
2022/03/09 03:15:32;;;;;;;6.17;5.37;;;0.60;98.30;;;;;;4974170;28;20530;-77
2022/03/09 03:18:01;;;;;;;6.27;5.50;;;0.60;98.40;;;;;;4977318;28;20464;-77
2022/03/09 03:20:29;;;;;;;5.63;5.13;;;0.60;98.40;;;;;;4976528;28;20536;-77
2022/03/09 03:22:57;;;;;;;6.43;5.73;;;0.50;98.40;;;;;;4958903;29;20459;-77
2022/03/09 03:25:25;;;;;;;7.20;5.57;;;0.50;98.40;;;;;;4954829;28;20511;-76
2022/03/09 03:27:53;;;;;;;6.70;5.40;;;0.50;98.40;;;;;;4955758;29;20479;-76
2022/03/09 03:30:21;;;;;;;6.83;6.10;;;0.50;98.40;;;;;;4955164;28;20475;-76
2022/03/09 03:32:52;;;;;;;5.83;5.23;;;0.40;98.40;;;;;;4955665;29;20458;-76
2022/03/09 03:35:21;;;;;;;7.00;6.30;;;0.40;98.40;;;;;;4962620;28;20533;-76
2022/03/09 03:37:52;;;;;;;6.43;5.83;;;0.40;98.40;;;;;;4992949;28;20510;-76
2022/03/09 03:40:20;;;;;;;7.10;6.40;;;0.40;98.50;;;;;;4990509;28;20497;-76
2022/03/09 03:42:48;;;;;;;7.73;6.10;;;0.40;98.50;;;;;;4969825;28;20465;-76
2022/03/09 03:45:16;;;;;;;6.53;5.87;;;0.40;98.50;;;;;;4997251;28;20512;-76
2022/03/09 03:47:45;;;;;;;7.17;6.40;;;0.30;98.50;;;;;;4982079;28;20924;-76
2022/03/09 03:50:14;;;;;;;6.53;5.57;;;0.30;98.50;;;;;;4982674;28;20423;-76
2022/03/09 03:52:42;;;;;;;8.67;6.00;;;0.30;98.50;;;;;;4966388;28;20427;-76
2022/03/09 03:55:11;;;;;;;7.37;6.47;;;0.30;98.50;;;;;;4958144;28;20470;-76
2022/03/09 03:57:39;;;;;;;7.70;6.60;;;0.20;98.50;;;;;;4957810;28;20808;-76
2022/03/09 04:00:09;;;;;;;10.30;6.17;;;0.20;98.60;;;;;;4959297;28;20443;-76
2022/03/09 04:02:37;;;;;;;7.10;6.30;;;0.20;98.60;;;;;;4957891;28;20455;-76
2022/03/09 04:05:07;;;;;;;7.40;6.70;;;0.20;98.60;;;;;;4958362;28;20799;-76
2022/03/09 04:07:36;;;;;;;8.77;6.53;;;0.10;98.60;;;;;;4951200;29;20792;-77
2022/03/09 04:10:05;;;;;;;6.63;5.80;;;0.10;98.60;;;;;;4957008;28;20906;-76
2022/03/09 04:12:34;;;;;;;6.60;5.90;;;0.10;98.60;;;;;;4956885;28;20457;-77
2022/03/09 04:15:04;;;;;;;6.33;5.70;;;0.10;98.60;;;;;;4956909;28;20922;-76
2022/03/09 04:17:39;;;;;;;8.40;6.77;;;0.00;98.60;;;;;;4956880;28;20449;-77
2022/03/09 04:20:08;;;;;;;7.30;6.60;;;0.00;98.60;;;;;;4956908;28;20529;-77
2022/03/09 04:22:38;;;;;;;8.50;6.37;;;0.00;98.70;;;;;;4958093;28;20494;-77
2022/03/09 04:25:08;;;;;;;7.57;6.77;;;0.00;98.70;;;;;;4956837;28;20478;-77
2022/03/09 04:27:37;;;;;;;7.80;6.27;;;0.00;98.70;;;;;;4952988;28;20449;-77
2022/03/09 04:30:09;;;;;;;7.67;6.53;;;-0.10;98.70;;;;;;4938165;29;20885;-77
2022/03/09 04:32:38;;;;;;;7.67;6.03;;;-0.10;98.70;;;;;;4956633;28;20550;-76
2022/03/09 04:35:10;;;;;;;8.57;6.03;;;-0.10;98.70;;;;;;4957792;28;20478;-76
2022/03/09 04:37:39;;;;;;;7.30;6.60;;;-0.10;98.70;;;;;;4956729;28;20460;-77
2022/03/09 04:40:11;;;;;;;6.37;5.50;;;-0.20;98.70;;;;;;4958019;28;20778;-76
2022/03/09 04:42:39;;;;;;;8.70;7.07;;;-0.20;98.70;;;;;;4956353;28;20453;-77
2022/03/09 04:45:08;;;;;;;7.77;6.80;;;-0.20;99.00;;;;;;4956114;28;20875;-77
2022/03/09 04:47:36;;;;;;;8.40;6.83;;;-0.20;98.80;;;;;;4956373;28;20466;-76
2022/03/09 04:50:05;;;;;;;8.80;7.90;;;-0.20;98.80;;;;;;4956524;28;20525;-76
2022/03/09 04:52:34;;;;;;;91.73;26.37;;;-0.30;98.80;;;;;;4937335;29;20455;-77
2022/03/09 04:55:04;;;;;;;8.83;7.93;;;-0.30;98.80;;;;;;4938528;29;20845;-77
2022/03/09 04:57:34;;;;;;;7.07;6.30;;;-0.30;98.80;;;;;;4936936;29;20451;-77
2022/03/09 05:00:02;;;;;;;9.70;7.20;;;-0.30;99.10;;;;;;4952519;29;21001;-76
2022/03/09 05:02:30;;;;;;;11.40;8.73;;;-0.40;98.80;;;;;;4952466;29;20447;-76
2022/03/09 05:04:58;;;;;;;7.37;6.67;;;-0.40;98.90;;;;;;4955807;28;20561;-77
2022/03/09 05:07:28;;;;;;;9.57;8.03;;;-0.40;98.90;;;;;;4957138;28;20453;-77
2022/03/09 05:09:56;;;;;;;7.57;6.87;;;-0.40;98.90;;;;;;4955733;29;20529;-77
2022/03/09 05:12:26;;;;;;;6.33;5.10;;;-0.40;98.90;;;;;;4955811;29;20976;-77
2022/03/09 05:14:54;;;;;;;6.97;5.90;;;-0.40;99.00;;;;;;4970998;28;20532;-76
2022/03/09 05:17:22;;;;;;;9.63;7.60;;;-0.40;99.00;;;;;;4974980;28;20459;-77
2022/03/09 05:19:50;;;;;;;9.53;8.10;;;-0.50;99.00;;;;;;4975129;28;20546;-77
2022/03/09 05:22:18;;;;;;;6.80;6.10;;;-0.50;99.00;;;;;;4974881;28;20460;-77
2022/03/09 05:24:52;;;;;;;8.93;6.60;;;-0.50;99.00;;;;;;4974905;28;20486;-77
2022/03/09 05:27:20;;;;;;;7.87;6.70;;;-0.50;99.00;;;;;;4975703;28;20454;-77
2022/03/09 05:29:50;;;;;;;6.90;6.20;;;-0.50;99.00;;;;;;4974716;28;20469;-77
2022/03/09 05:32:18;;;;;;;10.53;6.47;;;-0.50;99.00;;;;;;4975039;28;20453;-77
2022/03/09 05:34:49;;;;;;;10.37;6.83;;;-0.50;99.10;;;;;;4974693;28;20492;-77
2022/03/09 05:37:23;;;;;;;7.93;6.20;;;-0.60;99.00;;;;;;4976354;28;20544;-77
2022/03/09 05:39:52;;;;;;;10.10;8.60;;;-0.60;99.10;;;;;;4974080;28;20442;-76
2022/03/09 05:42:20;;;;;;;10.60;8.10;;;-0.60;99.10;;;;;;4975677;28;20449;-77
2022/03/09 05:44:49;;;;;;;18.63;10.50;;;-0.60;99.10;;;;;;4974511;28;20911;-76
2022/03/09 05:47:37;;;;;;;8.40;7.33;;;-0.60;99.10;;;;;;4974613;28;20444;-77
2022/03/09 05:50:08;;;;;;;9.63;7.83;;;-0.60;99.20;;;;;;4974418;28;21001;-77
2022/03/09 05:52:37;;;;;;;66.53;14.63;;;-0.70;99.10;;;;;;4974413;28;20452;-77
2022/03/09 05:55:06;;;;;;;162.77;18.73;;;-0.70;99.20;;;;;;4974396;28;20477;-77
2022/03/09 05:57:34;;;;;;;253.67;21.17;;;-0.70;99.20;;;;;;4974645;28;20446;-77
2022/03/09 06:00:06;;;;;;;23.13;11.80;;;-0.70;99.20;;;;;;4974639;28;20452;-76
2022/03/09 06:02:41;;;;;;;59.27;25.73;;;-0.70;99.30;;;;;;4974242;28;20450;-77
2022/03/09 06:05:10;;;;;;;10.10;8.83;;;-0.70;99.30;;;;;;4974251;28;20488;-77
2022/03/09 06:07:40;;;;;;;68.77;16.73;;;-0.70;99.30;;;;;;4974201;28;20449;-77
2022/03/09 06:10:09;;;;;;;97.97;21.67;;;-0.70;99.40;;;;;;4975110;28;21002;-77
2022/03/09 06:12:38;;;;;;;21.67;11.00;;;-0.70;99.40;;;;;;4974096;28;20474;-77
2022/03/09 06:15:10;;;;;;;37.33;18.63;;;-0.70;99.40;;;;;;4974020;28;20987;-76
2022/03/09 06:17:45;;;;;;;63.37;13.13;;;-0.70;99.50;;;;;;4973921;28;20450;-77
2022/03/09 06:20:16;;;;;;;11.47;8.40;;;-0.70;99.50;;;;;;4974119;28;20959;-76
2022/03/09 06:22:44;;;;;;;81.23;19.77;;;-0.70;99.50;;;;;;4974004;28;20474;-76
2022/03/09 06:25:15;;;;;;;168.83;17.37;;;-0.70;99.50;;;;;;4973804;28;21033;-76
2022/03/09 06:27:47;;;;;;;36.47;12.63;;;-0.70;99.50;;;;;;4973789;28;20493;-76
2022/03/09 06:30:17;;;;;;;17.40;11.50;;;-0.70;99.60;;;;;;4973710;28;20474;-76
2022/03/09 06:32:46;;;;;;;103.80;13.67;;;-0.70;99.60;;;;;;4974799;28;20756;-76
2022/03/09 06:35:16;;;;;;;85.10;27.90;;;-0.70;99.60;;;;;;4973480;28;20521;-76
2022/03/09 06:37:44;;;;;;;375.17;31.93;;;-0.70;99.60;;;;;;4973709;28;20458;-75
2022/03/09 06:40:13;;;;;;;224.20;38.67;;;-0.70;99.70;;;;;;4973575;28;20460;-76
2022/03/09 06:42:41;;;;;;;157.97;25.93;;;-0.70;99.70;;;;;;4973568;28;20457;-75
2022/03/09 06:45:10;;;;;;;112.50;17.70;;;-0.70;99.70;;;;;;4973523;28;20481;-76
2022/03/09 06:47:40;;;;;;;295.17;34.47;;;-0.70;99.80;;;;;;4973644;28;20532;-76
2022/03/09 06:50:10;;;;;;;244.73;29.93;;;-0.70;99.80;;;;;;4973553;28;20473;-75
2022/03/09 06:52:39;;;;;;;745.67;62.67;;;-0.60;99.90;;;;;;4973460;28;20560;-75
2022/03/09 06:55:12;;;;;;;977.10;73.10;;;-0.50;99.90;;;;;;4973502;28;20528;-76
2022/03/09 06:57:41;;;;;;;293.60;29.10;;;-0.40;99.90;;;;;;4974722;28;20516;-76
2022/03/09 07:00:12;;;;;;;966.00;80.60;;;-0.20;99.90;;;;;;4973456;28;20453;-76
2022/03/09 07:02:42;;;;;;;294.23;48.03;;;-0.10;99.90;;;;;;4973438;28;20442;-75
2022/03/09 07:05:11;;;;;;;356.63;44.87;;;0.00;99.90;;;;;;4973325;28;20469;-76
2022/03/09 07:07:40;;;;;;;294.53;37.13;;;0.10;99.90;;;;;;4973347;28;20449;-76
2022/03/09 07:10:12;;;;;;;294.10;49.37;;;0.20;99.90;;;;;;4973259;28;20470;-76
2022/03/09 07:12:45;;;;;;;618.57;55.13;;;0.30;99.90;;;;;;4973401;28;20441;-76
2022/03/09 07:15:14;;;;;;;295.17;43.10;;;0.40;99.90;;;;;;4973573;28;20516;-76
2022/03/09 07:17:45;;;;;;;366.10;55.23;;;0.40;99.90;;;;;;4973217;28;20453;-76
2022/03/09 07:20:15;;;;;;;471.83;49.40;;;0.50;99.90;;;;;;4974525;28;20528;-76
2022/03/09 07:22:44;;;;;;;324.80;38.63;;;0.60;99.90;;;;;;4973462;28;20533;-76
2022/03/09 07:25:13;;;;;;;99.13;30.83;;;0.60;99.90;;;;;;4974442;28;20466;-76
2022/03/09 07:27:42;;;;;;;314.97;32.13;;;0.70;99.90;;;;;;4973194;28;20446;-76
2022/03/09 07:30:11;;;;;;;307.13;38.33;;;0.70;99.90;;;;;;4973385;28;20474;-76
2022/03/09 07:32:40;;;;;;;156.03;23.90;;;0.80;99.90;;;;;;4973238;28;20481;-76
2022/03/09 07:35:23;;;;;;;238.47;28.47;;;0.90;99.90;;;;;;4973060;28;20500;-76
2022/03/09 07:37:52;;;;;;;177.83;30.80;;;0.90;99.90;;;;;;4974670;28;20531;-76
2022/03/09 07:40:21;;;;;;;111.00;23.47;;;1.00;99.90;;;;;;4973108;28;20455;-76
2022/03/09 07:42:50;;;;;;;106.87;25.57;;;1.10;99.90;;;;;;4973105;28;20882;-76
2022/03/09 07:45:18;;;;;;;153.93;32.23;;;1.10;99.90;;;;;;4973086;28;20469;-76
2022/03/09 07:47:46;;;;;;;186.60;28.73;;;1.20;99.90;;;;;;4973007;28;20859;-76
2022/03/09 07:50:15;;;;;;;67.23;20.73;;;1.30;99.90;;;;;;4972947;28;20496;-76
2022/03/09 07:52:44;;;;;;;103.13;22.93;;;1.40;99.90;;;;;;4973006;28;20875;-76
2022/03/09 07:55:13;;;;;;;10.63;9.53;;;1.50;99.90;;;;;;4972911;28;21079;-76
2022/03/09 07:57:41;;;;;;;15.80;11.30;;;1.60;99.90;;;;;;4973006;28;20454;-76
2022/03/09 08:00:10;;;;;;;25.17;10.30;;;1.70;99.90;;;;;;4973120;28;20453;-76
2022/03/09 08:02:44;;;;;;;12.43;9.27;;;1.70;99.90;;;;;;4975634;28;20949;-76
2022/03/09 08:05:13;;;;;;;9.87;8.87;;;1.90;99.90;;;;;;4976305;28;21017;-76
2022/03/09 08:07:45;;;;;;;10.00;9.00;;;2.00;99.90;;;;;;4976595;28;20565;-76
2022/03/09 08:10:15;;;;;;;12.13;9.37;;;2.20;99.90;;;;;;4977912;28;20430;-76
2022/03/09 08:12:43;;;;;;;9.70;8.70;;;2.30;99.90;;;;;;4977589;28;20442;-76
2022/03/09 08:15:12;;;;;;;11.57;10.17;;;2.50;99.90;;;;;;4976343;28;20482;-76
2022/03/09 08:17:41;;;;;;;13.90;10.93;;;2.70;99.90;;;;;;4976294;28;20503;-76
2022/03/09 08:20:13;;;;;;;9.70;8.67;;;2.90;99.90;;;;;;4976092;28;20505;-76
2022/03/09 08:22:42;;;;;;;11.10;9.67;;;3.10;99.90;;;;;;4976202;28;21035;-76
2022/03/09 08:25:13;;;;;;;10.27;9.17;;;3.40;99.90;;;;;;4976042;28;20484;-76
2022/03/09 08:27:42;;;;;;;11.60;9.50;;;3.60;99.90;;;;;;4976120;28;20456;-76
2022/03/09 08:30:10;;;;;;;10.60;9.13;;;3.80;99.90;;;;;;4975922;28;20947;-76
2022/03/09 08:32:39;;;;;;;11.23;9.33;;;4.00;99.90;;;;;;4976082;28;20453;-76
2022/03/09 08:35:09;;;;;;;9.80;8.80;;;4.20;99.90;;;;;;4975472;28;21032;-76
2022/03/09 08:37:37;;;;;;;10.63;9.53;;;4.40;99.90;;;;;;4975890;28;20459;-76
2022/03/09 08:40:07;;;;;;;12.03;9.23;;;4.50;99.90;;;;;;4980671;28;20446;-76
2022/03/09 08:42:36;;;;;;;10.20;9.20;;;4.70;99.90;;;;;;4993403;28;20449;-76
2022/03/09 08:45:05;;;;;;;12.03;9.10;;;4.90;99.90;;;;;;4994520;28;20553;-76
2022/03/09 08:47:33;;;;;;;11.23;9.30;;;5.10;99.90;;;;;;4994290;28;20446;-75
2022/03/09 08:50:02;;;;;;;9.90;8.90;;;5.20;99.90;;;;;;4994774;28;20484;-75
2022/03/09 08:52:50;;;;;;;15.83;8.90;;;5.40;99.90;;;;;;4996257;28;20536;-75
2022/03/09 08:55:21;;;;;;;11.83;9.07;;;5.60;99.90;;;;;;4997424;28;20457;-75
2022/03/09 08:57:51;;;;;;;9.87;8.80;;;5.70;99.90;;;;;;4998135;28;20452;-76
2022/03/09 09:00:22;;;;;;;10.13;8.80;;;5.90;99.90;;;;;;4989649;28;20465;-75
2022/03/09 09:02:52;;;;;;;11.07;8.20;;;6.00;99.90;;;;;;4986690;28;20453;-75
2022/03/09 09:05:22;;;;;;;9.57;8.23;;;6.10;99.90;;;;;;4998495;28;20501;-76
2022/03/09 09:07:50;;;;;;;11.47;9.83;;;6.20;99.90;;;;;;4993633;28;20449;-75
2022/03/09 09:10:18;;;;;;;8.83;7.93;;;6.30;99.90;;;;;;4978575;28;20474;-75
2022/03/09 09:12:47;;;;;;;10.93;9.00;;;6.40;99.90;;;;;;4975029;28;20558;-76
2022/03/09 09:15:17;;;;;;;9.60;7.90;;;6.50;99.90;;;;;;4975566;28;20473;-76
2022/03/09 09:17:45;;;;;;;11.70;9.03;;;6.50;99.90;;;;;;4975409;28;20541;-76
2022/03/09 09:20:34;;;;;;;10.83;8.30;;;6.60;99.90;;;;;;4975924;28;20465;-76
2022/03/09 09:23:03;;;;;;;9.83;8.83;;;6.70;99.90;;;;;;4975161;28;20472;-76
2022/03/09 09:25:35;;;;;;;10.03;7.73;;;6.80;99.90;;;;;;4975191;28;20494;-75
2022/03/09 09:28:03;;;;;;;9.43;8.53;;;6.90;99.90;;;;;;4974986;28;20822;-76
2022/03/09 09:30:33;;;;;;;14.70;8.30;;;7.00;99.90;;;;;;4974840;28;20852;-76
2022/03/09 09:33:02;;;;;;;8.93;8.03;;;7.10;99.90;;;;;;4974962;28;20474;-76
2022/03/09 09:35:31;;;;;;;11.60;8.77;;;7.10;99.90;;;;;;4975882;28;20531;-76
2022/03/09 09:38:08;;;;;;;11.17;9.67;;;7.20;99.90;;;;;;4974706;28;20848;-76
2022/03/09 09:40:40;;;;;;;9.77;8.60;;;7.30;99.90;;;;;;4976168;28;20436;-76
2022/03/09 09:43:11;;;;;;;9.23;8.40;;;7.30;99.90;;;;;;4974499;28;20447;-76
2022/03/09 09:45:41;;;;;;;11.20;8.87;;;7.40;99.90;;;;;;4974734;28;20918;-75
2022/03/09 09:48:11;;;;;;;11.03;9.10;;;7.40;99.80;;;;;;4974928;28;20977;-76
2022/03/09 09:50:40;;;;;;;10.47;9.07;;;7.50;99.80;;;;;;4974361;28;20456;-75
2022/03/09 09:53:12;;;;;;;9.67;8.70;;;7.60;99.80;;;;;;4974322;28;20983;-76
2022/03/09 09:55:41;;;;;;;8.80;7.80;;;7.60;99.60;;;;;;4975928;28;20962;-75
2022/03/09 09:58:09;;;;;;;9.80;8.83;;;7.70;99.50;;;;;;4976245;28;20443;-76
2022/03/09 10:00:38;;;;;;;8.20;7.47;;;7.80;99.40;;;;;;4974376;28;20556;-76
2022/03/09 10:03:07;;;;;;;7.60;6.90;;;7.80;99.30;;;;;;4974654;28;20452;-76
2022/03/09 10:05:36;;;;;;;12.23;8.57;;;7.90;99.30;;;;;;4974350;28;20488;-76
2022/03/09 10:08:16;;;;;;;9.30;8.40;;;7.90;99.20;;;;;;4976077;28;20476;-76
2022/03/09 10:10:57;;;;;;;9.17;8.17;;;8.00;99.10;;;;;;4974152;28;20933;-76
2022/03/09 10:13:27;;;;;;;10.50;7.90;;;8.10;99.00;;;;;;4974320;28;20518;-76
2022/03/09 10:16:18;;;;;;;8.83;8.00;;;8.10;98.90;;;;;;4974282;28;20444;-76
2022/03/09 10:18:50;;;;;;;10.47;9.00;;;8.20;98.90;;;;;;4975402;28;20507;-75
2022/03/09 10:21:21;;;;;;;12.20;9.07;;;8.20;98.90;;;;;;4975860;28;20853;-75
2022/03/09 10:23:57;;;;;;;9.83;8.83;;;8.30;98.80;;;;;;4973792;28;20500;-75
2022/03/09 10:26:27;;;;;;;10.40;8.60;;;8.30;98.70;;;;;;4974433;28;20534;-75
2022/03/09 10:28:57;;;;;;;8.60;7.80;;;8.40;98.60;;;;;;4975458;28;20430;-75
2022/03/09 10:31:34;;;;;;;9.83;8.93;;;8.40;98.60;;;;;;4974110;28;20474;-76
2022/03/09 10:34:10;;;;;;;10.03;7.83;;;8.50;98.50;;;;;;4973788;28;20542;-76
2022/03/09 10:36:52;;;;;;;9.70;8.80;;;8.50;98.30;;;;;;4974026;28;20477;-76
2022/03/09 10:39:20;;;;;;;9.40;8.50;;;8.60;98.30;;;;;;4975533;28;20461;-75
2022/03/09 10:41:49;;;;;;;9.63;7.90;;;8.70;98.20;;;;;;4973644;28;20524;-76
2022/03/09 10:44:17;;;;;;;9.60;7.63;;;8.70;98.10;;;;;;4973644;28;20576;-76
2022/03/09 10:46:47;;;;;;;8.73;7.83;;;8.80;98.00;;;;;;4973764;28;20500;-76
2022/03/09 10:49:19;;;;;;;8.37;7.63;;;8.80;97.70;;;;;;4974805;28;20916;-76
2022/03/09 10:51:50;;;;;;;11.30;8.07;;;8.90;97.50;;;;;;4973547;28;20470;-76
2022/03/09 10:54:23;;;;;;;8.93;7.93;;;8.90;97.50;;;;;;4973742;28;20569;-76
2022/03/09 10:57:02;;;;;;;9.30;8.27;;;9.00;97.30;;;;;;4973451;28;20442;-76
2022/03/09 10:59:44;;;;;;;8.90;8.10;;;9.00;97.20;;;;;;4974723;28;20477;-76
2022/03/09 11:02:12;;;;;;;9.23;7.80;;;9.10;97.20;;;;;;4973561;28;20466;-76
2022/03/09 11:04:42;;;;;;;8.27;7.53;;;9.20;97.20;;;;;;4974548;28;20449;-76
2022/03/09 11:07:13;;;;;;;8.67;7.87;;;9.20;97.00;;;;;;4973329;28;20799;-75
2022/03/09 11:09:48;;;;;;;7.80;7.10;;;9.20;97.00;;;;;;4973509;28;20806;-76
2022/03/09 11:12:16;;;;;;;8.10;7.30;;;9.30;96.90;;;;;;4974810;28;20834;-75
2022/03/09 11:14:46;;;;;;;9.00;8.10;;;9.30;96.80;;;;;;4973191;28;20909;-76
2022/03/09 11:17:16;;;;;;;7.87;7.17;;;9.40;96.70;;;;;;4974437;28;20442;-75
2022/03/09 11:19:46;;;;;;;8.50;7.33;;;9.50;96.50;;;;;;4974516;28;20437;-76
2022/03/09 11:22:17;;;;;;;7.50;6.80;;;9.50;96.40;;;;;;4974539;28;20480;-76
2022/03/09 11:24:46;;;;;;;7.20;6.53;;;9.60;96.10;;;;;;4973212;28;20465;-76
2022/03/09 11:27:15;;;;;;;7.87;7.00;;;9.60;95.80;;;;;;4973338;28;20493;-76
2022/03/09 11:29:44;;;;;;;8.27;7.43;;;9.70;95.80;;;;;;4973205;28;20883;-76
2022/03/09 11:32:14;;;;;;;6.87;6.27;;;9.70;95.40;;;;;;4973065;28;20509;-76
2022/03/09 11:34:43;;;;;;;6.80;6.10;;;9.80;95.30;;;;;;4974125;28;20883;-76
2022/03/09 11:37:14;;;;;;;7.67;6.90;;;9.80;95.10;;;;;;4975061;28;20540;-76
2022/03/09 11:39:45;;;;;;;8.57;7.40;;;9.90;95.10;;;;;;4976919;28;20548;-76
2022/03/09 11:42:34;;;;;;;9.57;7.13;;;9.90;95.10;;;;;;4978662;28;20500;-76
2022/03/09 11:45:30;;;;;;;7.50;6.80;;;10.00;94.40;;;;;;4976942;28;20532;-76
2022/03/09 11:48:03;;;;;;;7.73;6.90;;;10.00;94.30;;;;;;4978283;28;20433;-78
2022/03/09 11:50:34;;;;;;;6.77;6.07;;;10.00;94.30;;;;;;4978581;28;20903;-77
2022/03/09 11:53:05;;;;;;;7.23;6.50;;;10.10;94.60;;;;;;4977851;28;20987;-77
2022/03/09 11:55:34;;;;;;;7.57;6.87;;;10.10;93.80;;;;;;4978199;28;20461;-77
2022/03/09 11:58:12;;;;;;;7.20;6.50;;;10.10;93.70;;;;;;4978243;28;20533;-77
2022/03/09 12:01:02;;;;;;;8.00;6.57;;;10.20;93.60;;;;;;4976540;28;20441;-77
2022/03/09 12:03:39;;;;;;;7.43;6.70;;;10.20;93.60;;;;;;4976355;28;20470;-77
2022/03/09 12:06:41;;;;;;;8.13;7.00;;;10.30;93.70;;;;;;4978346;28;20432;-77
2022/03/09 12:09:11;;;;;;;8.67;7.37;;;10.30;93.60;;;;;;4977571;28;20976;-77
2022/03/09 12:12:06;;;;;;;7.30;6.60;;;10.30;93.70;;;;;;4976252;28;20877;-76
2022/03/09 12:15:02;;;;;;;8.63;7.50;;;10.40;93.80;;;;;;4976314;28;20519;-77
2022/03/09 12:17:32;;;;;;;8.17;7.37;;;10.40;93.70;;;;;;4976338;28;20481;-77
2022/03/09 12:20:16;;;;;;;8.30;7.50;;;10.50;93.80;;;;;;4976703;28;20450;-78
2022/03/09 12:23:04;;;;;;;8.10;7.30;;;10.50;93.60;;;;;;4977633;28;20529;-78
2022/03/09 12:25:38;;;;;;;8.47;7.67;;;10.50;93.70;;;;;;4976113;28;20536;-77
2022/03/09 12:28:44;;;;;;;11.83;9.60;;;10.60;93.90;;;;;;4977690;28;20514;-77
2022/03/09 12:31:23;;;;;;;9.30;8.40;;;10.60;93.90;;;;;;4977322;28;20613;-77
2022/03/09 12:33:55;;;;;;;8.70;7.80;;;10.70;94.00;;;;;;4977021;28;20481;-77
2022/03/09 12:36:25;;;;;;;9.80;8.80;;;10.70;94.00;;;;;;4977287;28;20844;-78
2022/03/09 12:38:59;;;;;;;9.57;7.90;;;10.80;94.00;;;;;;4977208;28;20442;-77
2022/03/09 12:41:31;;;;;;;9.30;8.40;;;10.80;94.00;;;;;;4977826;28;20480;-77
2022/03/09 12:44:01;;;;;;;9.90;8.90;;;10.80;93.80;;;;;;4977114;28;20463;-77
2022/03/09 12:46:31;;;;;;;11.43;10.23;;;10.90;94.00;;;;;;4976868;28;21043;-77
2022/03/09 12:49:08;;;;;;;10.50;8.30;;;10.90;94.00;;;;;;4975499;28;20978;-78
2022/03/09 12:51:39;;;;;;;8.73;7.87;;;11.00;93.90;;;;;;4977102;28;20429;-77
2022/03/09 12:54:41;;;;;;;8.97;8.10;;;11.10;93.90;;;;;;4976810;28;20846;-77
2022/03/09 12:57:13;;;;;;;8.50;7.70;;;11.10;93.90;;;;;;4975539;28;20480;-77
2022/03/09 12:59:52;;;;;;;8.50;7.70;;;11.10;93.90;;;;;;4975398;28;20508;-77
2022/03/09 13:02:22;;;;;;;7.70;7.00;;;11.20;93.80;;;;;;4975529;28;20480;-77
2022/03/09 13:04:59;;;;;;;8.63;7.73;;;11.20;93.30;;;;;;4975258;28;20470;-77
2022/03/09 13:07:27;;;;;;;10.93;7.13;;;11.20;93.20;;;;;;4977144;28;20421;-77
2022/03/09 13:10:10;;;;;;;9.10;8.20;;;11.30;93.20;;;;;;4976879;28;20442;-77